Time;durP1;ratioP1;P1;durP2;ratioP2;P2;SDS_P1;SDS_P2;PMS_P1;PMS_P2;Temp;Humidity;BMP_temperature;BMP_pressure;BME280_temperature;BME280_humidity;BME280_pressure;Samples;Min_cycle;Max_cycle;Signal;HPM_P1;HPM_P2
2021/03/16 00:01:34;;;;;;;57.28;29.05;;;;;;;4.24;93.39;98392.78;3551878;27;20512;-58
2021/03/16 00:03:18;;;;;;;54.42;28.88;;;;;;;4.24;93.62;98382.53;3553798;27;20519;-58
2021/03/16 00:05:00;;;;;;;49.63;27.17;;;;;;;4.24;93.47;98382.53;3551146;27;20517;-58
2021/03/16 00:06:41;;;;;;;51.42;26.73;;;;;;;4.23;93.30;98381.66;3554485;27;20051;-58
2021/03/16 00:08:22;;;;;;;50.88;27.00;;;;;;;4.25;93.59;98385.94;3551241;27;20107;-57
2021/03/16 00:10:05;;;;;;;54.17;26.40;;;;;;;4.25;93.70;98385.94;3553795;27;20057;-57
2021/03/16 00:11:47;;;;;;;48.38;26.10;;;;;;;4.25;93.34;98383.38;3551155;27;20594;-57
2021/03/16 00:13:29;;;;;;;51.00;26.40;;;;;;;4.26;93.35;98382.56;3551910;27;20046;-57
2021/03/16 00:15:12;;;;;;;47.92;26.33;;;;;;;4.25;93.24;98383.38;3554067;27;20087;-58
2021/03/16 00:16:53;;;;;;;48.45;25.77;;;;;;;4.25;93.50;98380.81;3550822;27;20430;-58
2021/03/16 00:18:35;;;;;;;44.47;23.95;;;;;;;4.25;93.15;98388.50;3554344;27;20042;-58
2021/03/16 00:20:17;;;;;;;51.97;24.50;;;;;;;4.24;93.47;98387.66;3550726;27;20051;-58
2021/03/16 00:21:58;;;;;;;56.80;25.55;;;;;;;4.24;93.36;98387.66;3553880;27;20050;-58
2021/03/16 00:23:40;;;;;;;48.88;24.02;;;;;;;4.23;93.15;98389.38;3550975;27;20534;-58
2021/03/16 00:25:22;;;;;;;46.08;24.23;;;;;;;4.23;93.01;98389.38;3551010;27;20043;-58
2021/03/16 00:27:04;;;;;;;43.75;23.48;;;;;;;4.22;93.05;98390.19;3554194;27;20047;-58
2021/03/16 00:28:46;;;;;;;45.22;24.30;;;;;;;4.23;92.88;98398.78;3550529;27;20083;-58
2021/03/16 00:30:27;;;;;;;44.65;22.98;;;;;;;4.20;92.81;98397.00;3554308;27;20418;-58
2021/03/16 00:32:09;;;;;;;47.65;24.33;;;;;;;4.23;92.87;98403.91;3550309;27;20486;-58
2021/03/16 00:33:51;;;;;;;46.97;24.52;;;;;;;4.21;92.60;98401.31;3553766;27;20455;-58
2021/03/16 00:35:32;;;;;;;46.03;25.58;;;;;;;4.21;92.77;98397.88;3551008;27;20091;-58
2021/03/16 00:37:13;;;;;;;46.38;24.90;;;;;;;4.19;92.62;98395.28;3552803;27;20047;-58
2021/03/16 00:38:55;;;;;;;47.05;24.27;;;;;;;4.19;92.25;98399.53;3551896;27;20083;-58
2021/03/16 00:40:36;;;;;;;50.10;26.17;;;;;;;4.18;92.30;98401.25;3550523;27;20091;-58
2021/03/16 00:42:17;;;;;;;44.28;23.90;;;;;;;4.16;92.23;98400.38;3553874;27;20043;-58
2021/03/16 00:43:59;;;;;;;50.90;26.42;;;;;;;4.16;92.50;98404.59;3550326;27;20083;-58
2021/03/16 00:45:41;;;;;;;46.63;25.23;;;;;;;4.15;92.28;98405.47;3553467;27;20051;-58
2021/03/16 00:47:23;;;;;;;48.55;26.00;;;;;;;4.15;92.21;98397.75;3550865;27;20105;-58
2021/03/16 00:49:04;;;;;;;45.20;24.02;;;;;;;4.12;92.33;98398.56;3552683;27;20523;-58
2021/03/16 00:50:45;;;;;;;46.63;25.77;;;;;;;4.12;91.91;98406.25;3553387;27;20549;-58
2021/03/16 00:52:27;;;;;;;46.20;25.10;;;;;;;4.11;92.04;98404.53;3550195;27;20549;-58
2021/03/16 00:54:08;;;;;;;49.72;24.77;;;;;;;4.11;92.13;98406.25;3553994;27;20054;-58
2021/03/16 00:55:49;;;;;;;42.55;24.17;;;;;;;4.10;91.87;98396.81;3552655;27;20616;-58
2021/03/16 00:57:31;;;;;;;45.17;24.90;;;;;;;4.09;91.77;98397.63;3553310;27;20057;-58
2021/03/16 00:59:13;;;;;;;43.05;23.83;;;;;;;4.06;91.98;98398.44;3552918;27;20047;-58
2021/03/16 01:00:55;;;;;;;47.47;23.67;;;;;;;4.04;91.81;98400.13;3550974;27;20070;-58
2021/03/16 01:02:38;;;;;;;43.60;24.75;;;;;;;4.02;91.93;98394.13;3553743;27;20054;-58
2021/03/16 01:04:19;;;;;;;44.13;24.08;;;;;;;4.00;91.99;98391.50;3552509;27;20043;-58
2021/03/16 01:06:02;;;;;;;40.70;21.65;;;;;;;3.97;91.79;98396.56;3553879;27;20079;-58
2021/03/16 01:09:43;;;;;;;43.78;21.88;;;;;;;3.94;92.05;98391.38;3551762;27;20397;-58
2021/03/16 01:11:26;;;;;;;41.90;23.23;;;;;;;3.92;92.33;98390.50;3553566;27;20055;-58
2021/03/16 01:13:07;;;;;;;41.30;22.67;;;;;;;3.90;91.92;98386.19;3548647;27;20050;-56
2021/03/16 01:14:49;;;;;;;44.85;23.52;;;;;;;3.89;92.04;98387.00;3553761;27;20091;-57
2021/03/16 01:16:30;;;;;;;45.08;22.15;;;;;;;3.87;92.10;98378.41;3552216;27;20046;-57
2021/03/16 01:18:13;;;;;;;44.42;23.27;;;;;;;3.85;92.03;98379.22;3553804;27;20046;-57
2021/03/16 01:19:54;;;;;;;44.72;23.73;;;;;;;3.83;91.86;98377.50;3549428;27;20503;-56
2021/03/16 01:21:35;;;;;;;39.97;22.35;;;;;;;3.80;92.02;98378.28;3551449;27;20058;-57
2021/03/16 01:23:17;;;;;;;47.22;23.20;;;;;;;3.80;92.14;98380.00;3553165;27;20055;-55
2021/03/16 01:25:16;;;;;;;43.58;22.42;;;;;;;3.78;92.17;98371.41;3550080;27;20053;-56
2021/03/16 01:26:58;;;;;;;42.75;23.48;;;;;;;3.76;92.18;98368.81;3553755;27;20130;-55
2021/03/16 01:28:39;;;;;;;41.15;21.58;;;;;;;3.75;92.02;98377.31;3552082;27;20053;-56
2021/03/16 01:30:23;;;;;;;43.80;23.92;;;;;;;3.74;92.17;98369.63;3551859;27;20046;-57
2021/03/16 01:32:06;;;;;;;46.50;22.33;;;;;;;3.73;92.01;98371.31;3551055;27;20046;-56
2021/03/16 01:33:48;;;;;;;38.75;21.60;;;;;;;3.71;91.93;98378.09;3550472;27;20057;-55
2021/03/16 01:35:29;;;;;;;40.70;22.83;;;;;;;3.71;92.17;98379.81;3553364;27;20047;-55
2021/03/16 01:37:11;;;;;;;39.13;22.02;;;;;;;3.68;92.20;98375.47;3549811;27;20047;-56
2021/03/16 01:38:52;;;;;;;43.55;23.15;;;;;;;3.67;92.07;98378.88;3553679;27;20051;-57
2021/03/16 01:40:35;;;;;;;39.97;21.60;;;;;;;3.67;91.74;98378.03;3550676;27;20095;-55
2021/03/16 01:42:17;;;;;;;39.03;22.70;;;;;;;3.65;92.00;98371.16;3551500;27;20054;-57
2021/03/16 01:43:59;;;;;;;37.53;21.35;;;;;;;3.62;92.06;98372.81;3554134;27;20098;-57
2021/03/16 01:45:42;;;;;;;40.15;21.58;;;;;;;3.60;91.76;98371.91;3551430;27;20062;-56
2021/03/16 01:47:24;;;;;;;39.13;21.88;;;;;;;3.57;91.89;98366.72;3553007;27;20049;-57
2021/03/16 01:49:05;;;;;;;41.67;21.70;;;;;;;3.53;91.93;98365.78;3549672;27;20290;-56
2021/03/16 01:50:47;;;;;;;44.15;22.67;;;;;;;3.51;91.90;98359.78;3553284;27;20046;-57
2021/03/16 01:52:29;;;;;;;39.63;22.23;;;;;;;3.49;91.97;98368.25;3549727;27;20112;-57
2021/03/16 01:54:10;;;;;;;41.83;23.95;;;;;;;3.44;92.05;98358.78;3551533;27;20445;-56
2021/03/16 01:55:54;;;;;;;40.33;22.23;;;;;;;3.42;92.11;98360.44;3553404;27;20079;-56
2021/03/16 01:57:37;;;;;;;43.20;22.58;;;;;;;3.38;92.17;98366.34;3549735;27;20046;-56
2021/03/16 01:59:19;;;;;;;39.67;22.15;;;;;;;3.34;92.16;98367.09;3539153;28;20058;-58
2021/03/16 02:01:01;;;;;;;41.60;22.08;;;;;;;3.32;91.97;98370.47;3545340;27;20411;-58
2021/03/16 02:02:43;;;;;;;40.03;22.53;;;;;;;3.28;92.13;98369.53;3552396;27;20440;-58
2021/03/16 02:04:25;;;;;;;40.75;22.55;;;;;;;3.24;92.33;98371.16;3549845;27;20479;-58
2021/03/16 02:06:11;;;;;;;42.60;23.52;;;;;;;3.21;92.42;98375.38;3551282;27;20091;-58
2021/03/16 02:08:02;;;;;;;43.58;23.38;;;;;;;3.17;92.23;98371.88;3553052;27;20058;-58
2021/03/16 02:10:05;;;;;;;41.55;23.52;;;;;;;3.13;92.45;98370.06;3549720;27;20157;-58
2021/03/16 02:11:53;;;;;;;47.10;22.67;;;;;;;3.10;92.60;98372.56;3550886;27;20495;-58
2021/03/16 02:13:41;;;;;;;40.92;23.10;;;;;;;3.05;92.43;98369.91;3550303;27;20423;-58
2021/03/16 02:15:28;;;;;;;38.05;20.67;;;;;;;3.02;92.56;98369.81;3551772;27;20107;-58
2021/03/16 02:17:15;;;;;;;40.60;22.52;;;;;;;3.00;92.69;98370.63;3553044;27;20050;-57
2021/03/16 02:19:00;;;;;;;43.42;23.35;;;;;;;2.97;92.70;98373.97;3549085;27;20046;-56
2021/03/16 02:20:52;;;;;;;;;;;;;;;2.94;92.95;98370.47;3551415;27;20058;-56
2021/03/16 02:22:36;;;;;;;40.70;21.83;;;;;;;2.92;93.07;98365.31;3552150;27;20442;-57
2021/03/16 02:24:28;;;;;;;42.10;22.40;;;;;;;2.90;92.89;98364.41;3549168;27;20423;-57
2021/03/16 02:26:20;;;;;;;40.70;21.95;;;;;;;2.89;93.08;98365.25;3553146;27;20046;-58
2021/03/16 02:28:21;;;;;;;43.35;23.27;;;;;;;2.88;92.99;98363.53;3550593;27;20071;-58
2021/03/16 02:30:07;;;;;;;43.65;23.05;;;;;;;2.88;93.16;98371.22;3549565;27;20050;-58
2021/03/16 02:31:53;;;;;;;43.60;24.75;;;;;;;2.87;92.86;98372.03;3553180;27;20411;-58
2021/03/16 02:33:38;;;;;;;45.15;25.25;;;;;;;2.86;92.89;98363.47;3549263;27;20162;-58
2021/03/16 02:35:22;;;;;;;44.40;23.15;;;;;;;2.86;93.05;98372.88;3551446;27;20463;-58
2021/03/16 02:37:06;;;;;;;44.40;23.80;;;;;;;2.85;92.94;98374.56;3552461;27;20079;-58
2021/03/16 02:38:51;;;;;;;41.40;22.05;;;;;;;2.85;93.06;98371.13;3551577;27;20499;-58
2021/03/16 02:40:34;;;;;;;45.67;23.73;;;;;;;2.83;93.03;98365.97;3552625;27;20043;-58
2021/03/16 02:42:17;;;;;;;46.05;23.25;;;;;;;2.83;92.99;98363.41;3550717;27;20054;-58
2021/03/16 02:43:59;;;;;;;43.58;23.58;;;;;;;2.82;92.69;98366.81;3552482;27;20062;-58
2021/03/16 02:45:43;;;;;;;45.60;23.60;;;;;;;2.80;92.95;98368.47;3549795;27;20055;-58
2021/03/16 02:47:25;;;;;;;39.80;21.42;;;;;;;2.79;92.87;98366.72;3549824;27;20569;-57
2021/03/16 02:49:07;;;;;;;45.38;22.65;;;;;;;2.78;92.60;98367.56;3553738;27;20074;-57
2021/03/16 02:50:49;;;;;;;46.05;24.05;;;;;;;2.76;92.84;98369.22;3550128;27;20415;-57
2021/03/16 02:52:32;;;;;;;43.22;22.48;;;;;;;2.74;92.65;98376.00;3552777;27;20057;-57
2021/03/16 02:54:17;;;;;;;40.03;20.63;;;;;;;2.74;92.72;98370.03;3550164;27;20046;-57
2021/03/16 02:55:59;;;;;;;42.00;23.52;;;;;;;2.73;92.56;98371.72;3552106;27;20046;-57
2021/03/16 02:57:44;;;;;;;46.15;23.63;;;;;;;2.72;92.64;98369.97;3550058;27;20184;-56
2021/03/16 02:59:28;;;;;;;42.40;22.67;;;;;;;2.71;92.82;98365.69;3550263;27;20043;-56
2021/03/16 03:01:12;;;;;;;46.03;24.05;;;;;;;2.69;92.41;98360.56;3551701;27;20097;-57
2021/03/16 03:02:54;;;;;;;41.35;22.45;;;;;;;2.69;92.69;98364.78;3549011;27;20054;-56
2021/03/16 03:04:36;;;;;;;45.35;22.20;;;;;;;2.67;92.77;98364.75;3552611;27;20050;-55
2021/03/16 03:06:19;;;;;;;44.13;22.67;;;;;;;2.67;92.47;98358.75;3551066;27;20047;-56
2021/03/16 03:08:01;;;;;;;45.90;23.58;;;;;;;2.66;92.25;98360.47;3551007;27;20503;-56
2021/03/16 03:09:44;;;;;;;44.08;21.92;;;;;;;2.65;92.37;98361.28;3549916;27;20046;-56
2021/03/16 03:11:25;;;;;;;48.60;22.98;;;;;;;2.64;92.24;98357.00;3550986;27;20419;-57
2021/03/16 03:13:09;;;;;;;45.88;22.30;;;;;;;2.63;92.40;98352.72;3550747;27;20066;-56
2021/03/16 03:14:50;;;;;;;39.17;22.27;;;;;;;2.63;92.41;98362.09;3549160;27;20057;-56
2021/03/16 03:16:33;;;;;;;49.90;24.55;;;;;;;2.62;92.17;98356.09;3552343;27;20054;-56
2021/03/16 03:18:14;;;;;;;41.58;22.40;;;;;;;2.62;92.27;98353.53;3548821;27;20053;-56
2021/03/16 03:19:55;;;;;;;39.67;21.70;;;;;;;2.60;92.31;98351.78;3550313;27;20507;-56
2021/03/16 03:21:44;;;;;;;43.15;22.45;;;;;;;2.60;92.01;98354.31;3550964;27;20042;-56
2021/03/16 03:23:29;;;;;;;45.30;22.90;;;;;;;2.59;92.12;98356.03;3548634;27;20509;-56
2021/03/16 03:25:18;;;;;;;44.63;21.45;;;;;;;2.58;92.13;98354.28;3552118;27;20042;-60
2021/03/16 03:27:04;;;;;;;46.05;24.17;;;;;;;2.57;91.89;98354.25;3549014;27;20074;-59
2021/03/16 03:28:47;;;;;;;42.67;21.70;;;;;;;2.56;91.88;98357.66;3551091;27;20057;-58
2021/03/16 03:30:29;;;;;;;42.22;21.58;;;;;;;2.56;91.64;98360.22;3550180;27;20046;-58
2021/03/16 03:32:12;;;;;;;39.38;22.20;;;;;;;2.55;91.86;98361.03;3548690;27;20042;-58
2021/03/16 03:33:55;;;;;;;45.72;22.20;;;;;;;2.53;91.93;98361.00;3552360;27;20047;-58
2021/03/16 03:35:38;;;;;;;41.22;21.08;;;;;;;2.51;91.78;98360.94;3548449;27;20050;-58
2021/03/16 03:37:23;;;;;;;42.95;22.38;;;;;;;2.49;91.48;98356.63;3552281;27;20046;-58
2021/03/16 03:39:05;;;;;;;39.35;21.70;;;;;;;2.50;91.54;98364.34;3547986;27;20115;-59
2021/03/16 03:40:49;;;;;;;43.25;23.17;;;;;;;2.47;91.73;98356.59;3549782;27;20050;-58
2021/03/16 03:42:32;;;;;;;43.50;22.60;;;;;;;2.47;91.57;98358.28;3550263;27;20054;-58
2021/03/16 03:44:15;;;;;;;41.30;20.83;;;;;;;2.45;91.59;98365.94;3548672;27;20054;-59
2021/03/16 03:45:57;;;;;;;36.70;20.43;;;;;;;2.44;91.50;98363.34;3552184;27;20055;-59
2021/03/16 03:47:43;;;;;;;39.55;21.35;;;;;;;2.42;91.14;98352.19;3550553;27;20725;-58
2021/03/16 03:49:25;;;;;;;40.10;20.58;;;;;;;2.40;91.12;98362.38;3551583;27;20153;-58
2021/03/16 03:51:07;;;;;;;45.30;21.85;;;;;;;2.37;91.25;98352.06;3549350;27;20055;-58
2021/03/16 03:52:49;;;;;;;47.63;23.08;;;;;;;2.35;91.22;98366.53;3549899;27;20050;-58
2021/03/16 03:54:32;;;;;;;35.50;18.83;;;;;;;2.33;91.19;98363.94;3550767;27;20099;-58
2021/03/16 03:56:14;;;;;;;43.60;20.70;;;;;;;2.31;91.53;98347.66;3548382;27;20104;-58
2021/03/16 03:57:56;;;;;;;37.90;21.27;;;;;;;2.28;91.04;98357.81;3552453;27;20054;-58
2021/03/16 03:59:40;;;;;;;38.35;20.23;;;;;;;2.26;91.20;98348.38;3548289;27;20054;-58
2021/03/16 04:01:22;;;;;;;39.47;19.17;;;;;;;2.24;90.65;98348.34;3550760;27;20051;-59
2021/03/16 04:03:05;;;;;;;39.78;20.35;;;;;;;2.21;90.60;98348.25;3550185;27;20099;-58
2021/03/16 04:04:47;;;;;;;37.72;20.20;;;;;;;2.19;90.65;98347.38;3548991;27;20046;-58
2021/03/16 04:06:29;;;;;;;36.45;18.30;;;;;;;2.18;90.77;98352.44;3551196;27;20082;-59
2021/03/16 04:08:11;;;;;;;37.60;19.63;;;;;;;2.14;90.41;98341.25;3548242;27;20423;-58
2021/03/16 04:09:56;;;;;;;35.85;19.13;;;;;;;2.12;90.41;98351.44;3552045;27;20084;-58
2021/03/16 04:11:38;;;;;;;38.67;19.52;;;;;;;2.10;90.49;98349.69;3548104;27;20050;-59
2021/03/16 04:13:21;;;;;;;36.65;18.42;;;;;;;2.06;90.40;98356.44;3548585;27;20051;-58
2021/03/16 04:15:05;;;;;;;34.83;18.30;;;;;;;2.05;90.52;98358.94;3550629;27;20050;-58
2021/03/16 04:16:48;;;;;;;40.95;19.15;;;;;;;2.01;90.41;98350.31;3550810;27;20047;-55
2021/03/16 04:18:30;;;;;;;29.63;17.45;;;;;;;1.98;90.70;98355.34;3552240;27;20062;-58
2021/03/16 04:20:13;;;;;;;37.50;19.52;;;;;;;1.97;90.58;98357.84;3548373;27;20058;-58
2021/03/16 04:21:55;;;;;;;35.38;17.83;;;;;;;1.94;90.45;98354.41;3550154;27;20423;-58
2021/03/16 04:23:38;;;;;;;35.65;19.85;;;;;;;1.93;90.44;98351.81;3551333;27;20507;-58
2021/03/16 04:25:19;;;;;;;34.08;18.48;;;;;;;1.91;90.18;98354.31;3549938;27;20047;-58
2021/03/16 04:27:00;;;;;;;37.72;18.55;;;;;;;1.90;90.21;98360.28;3554441;27;20047;-58
2021/03/16 04:28:42;;;;;;;34.85;17.90;;;;;;;1.88;90.44;98353.38;3550458;27;20050;-59
2021/03/16 04:30:23;;;;;;;34.17;18.20;;;;;;;1.87;90.18;98361.88;3554154;27;20053;-58
2021/03/16 04:32:06;;;;;;;36.63;18.38;;;;;;;1.85;90.13;98355.88;3554057;27;20046;-58
2021/03/16 04:33:48;;;;;;;37.20;19.05;;;;;;;1.85;90.33;98358.41;3552684;27;20050;-58
2021/03/16 04:35:29;;;;;;;33.13;18.55;;;;;;;1.83;90.12;98357.47;3553510;27;20072;-58
2021/03/16 04:37:11;;;;;;;35.92;18.17;;;;;;;1.82;90.47;98355.78;3550347;27;20050;-58
2021/03/16 04:38:52;;;;;;;38.42;19.23;;;;;;;1.82;90.03;98351.50;3554271;27;20057;-58
2021/03/16 04:40:33;;;;;;;30.27;17.15;;;;;;;1.81;90.21;98360.00;3551887;27;20081;-58
2021/03/16 04:42:15;;;;;;;36.72;18.73;;;;;;;1.81;90.18;98362.56;3554188;27;20046;-58
2021/03/16 04:43:56;;;;;;;32.70;17.48;;;;;;;1.82;90.13;98368.56;3550403;27;20151;-58
2021/03/16 04:45:38;;;;;;;35.28;18.95;;;;;;;1.81;90.33;98365.09;3552705;27;20047;-58
2021/03/16 04:47:19;;;;;;;34.70;18.33;;;;;;;1.82;89.97;98371.13;3551457;27;20053;-58
2021/03/16 04:49:02;;;;;;;34.50;18.23;;;;;;;1.82;90.31;98371.97;3551996;27;20159;-55
2021/03/16 04:50:43;;;;;;;34.13;17.42;;;;;;;1.81;90.00;98366.81;3567450;27;20046;-55
2021/03/16 04:52:25;;;;;;;37.80;17.77;;;;;;;1.82;90.01;98366.00;3555155;27;20462;-55
2021/03/16 04:54:06;;;;;;;38.15;18.00;;;;;;;1.82;90.12;98364.31;3554250;27;20196;-55
2021/03/16 04:55:47;;;;;;;41.67;19.27;;;;;;;1.82;90.01;98379.63;3550347;27;20362;-55
2021/03/16 04:57:37;;;;;;;34.50;17.10;;;;;;;1.84;89.61;98374.56;3552813;27;20039;-55
2021/03/16 04:59:18;;;;;;;36.70;18.60;;;;;;;1.84;89.59;98370.31;3552657;27;20054;-54
2021/03/16 05:01:00;;;;;;;33.97;17.17;;;;;;;1.85;89.55;98368.66;3550258;27;20070;-56
2021/03/16 05:02:41;;;;;;;38.00;18.45;;;;;;;1.84;89.54;98372.88;3553937;27;20060;-55
2021/03/16 05:04:24;;;;;;;40.30;20.23;;;;;;;1.86;89.40;98375.47;3550128;27;20065;-56
2021/03/16 05:06:05;;;;;;;36.97;18.55;;;;;;;1.86;89.37;98372.91;3553926;27;20047;-55
2021/03/16 05:07:47;;;;;;;40.97;19.45;;;;;;;1.87;89.63;98367.00;3550373;27;20055;-56
2021/03/16 05:09:28;;;;;;;35.15;17.83;;;;;;;1.87;89.65;98372.97;3552270;27;20538;-56
2021/03/16 05:11:09;;;;;;;35.38;18.50;;;;;;;1.88;89.55;98377.28;3552269;27;20553;-56
2021/03/16 05:12:51;;;;;;;38.85;17.95;;;;;;;1.89;89.13;98378.97;3553677;27;20047;-55
2021/03/16 05:14:32;;;;;;;33.97;18.45;;;;;;;1.88;89.15;98377.28;3552019;27;20455;-56
2021/03/16 05:16:20;;;;;;;48.00;19.25;;;;;;;1.89;89.09;98373.00;3550263;27;20095;-56
2021/03/16 05:18:02;;;;;;;40.67;18.80;;;;;;;1.89;89.27;98375.56;3553327;27;20455;-55
2021/03/16 05:19:45;;;;;;;37.60;18.98;;;;;;;1.90;89.19;98367.94;3551676;27;20422;-55
2021/03/16 05:21:28;;;;;;;38.60;18.02;;;;;;;1.92;89.51;98373.97;3550813;27;20519;-55
2021/03/16 05:23:10;;;;;;;40.55;19.13;;;;;;;1.92;89.40;98379.06;3553412;27;20133;-56
2021/03/16 05:24:51;;;;;;;36.05;18.55;;;;;;;1.94;89.30;98374.84;3550038;27;20039;-54
2021/03/16 05:26:33;;;;;;;40.85;18.92;;;;;;;1.97;89.43;98380.88;3553543;27;20054;-55
2021/03/16 05:28:16;;;;;;;34.97;18.20;;;;;;;1.97;89.00;98374.09;3552364;27;20042;-56
2021/03/16 05:29:58;;;;;;;35.42;17.75;;;;;;;2.00;89.45;98381.81;3553279;27;20122;-55
2021/03/16 05:31:39;;;;;;;39.90;18.45;;;;;;;2.01;88.94;98383.56;3552615;27;20072;-55
2021/03/16 05:33:21;;;;;;;34.22;17.08;;;;;;;2.04;89.13;98380.22;3550958;27;20094;-55
2021/03/16 05:35:04;;;;;;;37.22;20.02;;;;;;;2.05;88.92;98381.97;3554487;27;20057;-55
2021/03/16 05:36:46;;;;;;;34.90;17.88;;;;;;;2.08;88.84;98377.78;3551091;27;20078;-56
2021/03/16 05:38:27;;;;;;;39.13;19.25;;;;;;;2.10;89.13;98380.38;3553508;27;20057;-55
2021/03/16 05:40:10;;;;;;;34.55;18.80;;;;;;;2.13;89.05;98386.44;3552014;27;20115;-56
2021/03/16 05:41:52;;;;;;;39.20;19.23;;;;;;;2.16;88.52;98384.78;3552877;27;20050;-54
2021/03/16 05:43:34;;;;;;;37.88;20.13;;;;;;;2.20;89.00;98389.16;3550279;27;20440;-55
2021/03/16 05:45:17;;;;;;;43.65;20.25;;;;;;;2.23;88.67;98386.69;3551223;27;20043;-56
2021/03/16 05:47:01;;;;;;;37.75;18.75;;;;;;;2.28;88.76;98387.66;3552020;27;20082;-55
2021/03/16 05:48:49;;;;;;;43.17;19.23;;;;;;;2.33;88.46;98394.63;3550907;27;20043;-55
2021/03/16 05:50:32;;;;;;;36.78;18.15;;;;;;;2.39;88.76;98400.72;3553246;27;20073;-55
2021/03/16 05:52:13;;;;;;;35.08;18.92;;;;;;;2.44;88.56;98396.59;3549813;27;20312;-54
2021/03/16 05:53:55;;;;;;;34.47;19.10;;;;;;;2.50;88.25;98384.84;3551112;27;20412;-56
2021/03/16 05:55:36;;;;;;;34.72;18.05;;;;;;;2.55;87.86;98394.31;3551815;27;20137;-54
2021/03/16 05:57:18;;;;;;;38.03;18.80;;;;;;;2.61;88.34;98392.78;3552128;27;20050;-56
2021/03/16 05:59:00;;;;;;;34.33;17.75;;;;;;;2.66;88.43;98391.19;3553376;27;20061;-53
2021/03/16 06:00:42;;;;;;;34.20;18.33;;;;;;;2.70;88.06;98395.53;3549518;27;20050;-56
2021/03/16 06:02:23;;;;;;;39.92;18.92;;;;;;;2.75;87.24;98389.66;3553191;27;20054;-56
2021/03/16 06:04:05;;;;;;;32.55;16.38;;;;;;;2.78;87.39;98384.63;3549543;27;20082;-57
2021/03/16 06:05:50;;;;;;;36.25;18.85;;;;;;;2.81;86.98;98390.69;3550955;27;20062;-57
2021/03/16 06:07:31;;;;;;;39.17;18.15;;;;;;;2.84;86.58;98384.78;3551620;27;20070;-56
2021/03/16 06:09:12;;;;;;;35.55;18.67;;;;;;;2.88;86.87;98384.00;3550757;27;20050;-56
2021/03/16 06:10:54;;;;;;;37.38;18.40;;;;;;;2.95;86.95;98379.91;3553134;27;20051;-57
2021/03/16 06:12:35;;;;;;;41.20;18.83;;;;;;;3.00;87.11;98388.56;3549636;27;20053;-57
2021/03/16 06:14:17;;;;;;;38.50;19.45;;;;;;;3.03;87.06;98389.50;3551438;27;20271;-57
2021/03/16 06:15:59;;;;;;;34.38;17.88;;;;;;;3.06;87.08;98381.00;3549359;27;20521;-57
2021/03/16 06:17:43;;;;;;;34.03;17.63;;;;;;;3.09;86.07;98386.19;3551056;27;20039;-57
2021/03/16 06:19:26;;;;;;;;;;;;;;;3.08;86.50;98387.91;3552205;27;20050;-57
2021/03/16 06:21:09;;;;;;;34.50;16.75;;;;;;;3.11;86.45;98378.56;3549219;27;20372;-58
2021/03/16 06:23:01;;;;;;;36.85;18.10;;;;;;;3.13;85.98;98385.44;3538776;28;20047;-57
2021/03/16 06:24:44;;;;;;;36.90;19.15;;;;;;;3.14;85.50;98387.16;3547524;27;20062;-57
2021/03/16 06:26:27;;;;;;;38.28;17.85;;;;;;;3.17;85.76;98389.81;3552225;27;20070;-57
2021/03/16 06:28:10;;;;;;;35.28;17.80;;;;;;;3.23;85.94;98400.19;3550655;27;20046;-57
2021/03/16 06:29:52;;;;;;;36.10;18.20;;;;;;;3.29;86.49;98399.44;3550367;27;20046;-57
2021/03/16 06:31:34;;;;;;;41.38;18.67;;;;;;;3.36;86.50;98415.81;3551698;27;20057;-56
2021/03/16 06:33:19;;;;;;;32.90;17.60;;;;;;;3.41;86.44;98420.22;3549358;27;20043;-58
2021/03/16 06:35:02;;;;;;;36.72;18.17;;;;;;;3.47;86.18;98420.38;3553195;27;20050;-58
2021/03/16 06:36:47;;;;;;;34.67;18.23;;;;;;;3.55;86.27;98404.28;3549204;27;20047;-58
2021/03/16 06:38:30;;;;;;;36.92;17.73;;;;;;;3.58;85.23;98405.22;3550757;27;20392;-58
2021/03/16 06:40:13;;;;;;;34.40;16.95;;;;;;;3.65;85.66;98409.63;3551457;27;20054;-57
2021/03/16 06:41:55;;;;;;;36.38;18.67;;;;;;;3.70;85.76;98402.03;3550585;27;20054;-57
2021/03/16 06:43:36;;;;;;;40.33;19.00;;;;;;;3.74;85.28;98403.81;3552876;27;20050;-57
2021/03/16 06:45:17;;;;;;;34.65;16.77;;;;;;;3.81;85.30;98399.69;3549056;27;20055;-57
2021/03/16 06:47:00;;;;;;;35.13;17.67;;;;;;;3.91;86.07;98408.41;3552633;27;20047;-57
2021/03/16 06:48:41;;;;;;;33.72;16.52;;;;;;;3.97;85.92;98416.25;3548186;27;20074;-58
2021/03/16 06:50:27;;;;;;;37.45;18.20;;;;;;;3.98;83.83;98412.81;3550580;27;20047;-58
2021/03/16 06:52:12;;;;;;;33.25;16.80;;;;;;;4.04;84.02;98405.25;3551925;27;20431;-58
2021/03/16 06:53:54;;;;;;;31.92;17.55;;;;;;;4.09;84.52;98402.75;3549044;27;20053;-58
2021/03/16 06:55:36;;;;;;;30.98;17.10;;;;;;;4.16;85.01;98400.38;3552860;27;20050;-58
2021/03/16 06:57:23;;;;;;;32.15;17.25;;;;;;;4.22;83.12;98397.91;3551127;27;20066;-58
2021/03/16 06:59:23;;;;;;;;;;;;;;;4.31;83.13;98406.59;3550203;27;20099;-58
2021/03/16 07:01:06;;;;;;;38.92;16.77;;;;;;;4.42;82.56;98405.09;3552375;27;19970;-58
2021/03/16 07:02:49;;;;;;;28.40;15.48;;;;;;;4.56;82.90;98405.31;3549182;27;20070;-58
2021/03/16 07:04:30;;;;;;;38.17;17.38;;;;;;;4.68;82.03;98410.66;3552619;27;20107;-58
2021/03/16 07:06:13;;;;;;;34.40;17.13;;;;;;;4.82;82.59;98403.19;3548742;27;20042;-58
2021/03/16 07:07:58;;;;;;;29.85;15.88;;;;;;;4.96;82.17;98411.13;3552080;27;20054;-57
2021/03/16 07:09:40;;;;;;;32.90;17.35;;;;;;;5.02;80.39;98402.63;3550288;27;20054;-58
2021/03/16 07:11:24;;;;;;;31.48;17.33;;;;;;;5.09;81.71;98399.31;3551570;27;20044;-58
2021/03/16 07:13:06;;;;;;;33.78;16.33;;;;;;;5.15;81.28;98402.84;3550881;27;20099;-58
2021/03/16 07:14:48;;;;;;;30.48;15.68;;;;;;;5.23;80.87;98405.53;3548998;27;20082;-57
2021/03/16 07:16:31;;;;;;;29.70;16.40;;;;;;;5.32;82.20;98403.09;3552423;27;20061;-58
2021/03/16 07:18:12;;;;;;;31.17;16.33;;;;;;;5.40;82.08;98398.06;3549054;27;20054;-58
2021/03/16 07:20:03;;;;;;;33.33;17.40;;;;;;;5.50;80.66;98399.03;3551015;27;20051;-58
2021/03/16 07:21:50;;;;;;;36.42;16.75;;;;;;;5.63;79.24;98395.78;3552143;27;20560;-57
2021/03/16 07:23:38;;;;;;;32.13;17.33;;;;;;;5.76;80.32;98391.66;3549002;27;20419;-58
2021/03/16 07:25:19;;;;;;;40.60;16.27;;;;;;;5.85;78.30;98399.50;3552045;27;20039;-57
2021/03/16 07:27:01;;;;;;;26.85;14.82;;;;;;;5.94;77.88;98397.03;3549047;27;20046;-57
2021/03/16 07:28:44;;;;;;;30.45;16.73;;;;;;;6.00;77.79;98393.66;3551731;27;20039;-57
2021/03/16 07:30:26;;;;;;;29.85;16.70;;;;;;;6.08;78.44;98396.28;3550011;27;20103;-57
2021/03/16 07:32:08;;;;;;;29.15;15.13;;;;;;;6.18;76.88;98390.41;3548988;27;20043;-58
2021/03/16 07:33:50;;;;;;;30.90;15.73;;;;;;;6.25;75.54;98386.19;3552221;27;20584;-56
2021/03/16 07:35:34;;;;;;;30.77;15.23;;;;;;;6.28;75.39;98389.66;3548609;27;20420;-56
2021/03/16 07:37:16;;;;;;;29.52;14.45;;;;;;;6.35;75.87;98390.59;3552321;27;20091;-57
2021/03/16 07:38:59;;;;;;;28.58;15.63;;;;;;;6.41;75.07;98390.63;3548924;27;20046;-56
2021/03/16 07:40:43;;;;;;;30.42;15.75;;;;;;;6.48;74.68;98384.69;3550908;27;20070;-56
2021/03/16 07:42:24;;;;;;;35.30;15.45;;;;;;;6.58;75.42;98387.38;3551961;27;20511;-56
2021/03/16 07:44:07;;;;;;;30.00;16.13;;;;;;;6.66;76.45;98376.25;3549546;27;20449;-56
2021/03/16 07:45:49;;;;;;;;;;;;;;;6.76;76.20;98373.75;3552218;27;20053;-56
2021/03/16 07:47:35;;;;;;;28.98;15.73;;;;;;;6.87;75.18;98377.28;3548707;27;20240;-57
2021/03/16 07:49:29;;;;;;;28.27;14.75;;;;;;;7.05;75.30;98392.94;3552550;27;20251;-57
2021/03/16 07:51:12;;;;;;;32.63;15.80;;;;;;;7.24;76.95;98390.47;3550679;27;20535;-57
2021/03/16 07:52:53;;;;;;;30.25;15.30;;;;;;;7.38;75.48;98385.38;3551137;27;20335;-58
2021/03/16 07:54:37;;;;;;;31.67;16.27;;;;;;;7.50;75.30;98389.75;3551994;27;20047;-58
2021/03/16 07:56:23;;;;;;;;;;;;;;;7.61;76.29;98380.34;3550323;27;20078;-58
2021/03/16 07:58:08;;;;;;;24.17;14.15;;;;;;;7.71;75.43;98376.09;3552289;27;19969;-58
2021/03/16 08:00:09;;;;;;;31.08;15.52;;;;;;;7.81;75.04;98365.81;3552479;27;20142;-58
2021/03/16 08:01:51;;;;;;;32.55;15.45;;;;;;;7.90;71.71;98366.66;3552313;27;20051;-58
2021/03/16 08:03:32;;;;;;;31.58;15.98;;;;;;;8.07;75.41;98372.75;3553418;27;20447;-58